Terminal Aerodrome Forecast
Issued by NWS

Home | Current Version | Previous Version | Text Only | Print | Product List | Glossary On
Versions: 1 2 3 4 5 6 7 8 9 10 11 12 13 14 15 16 17 18
000
FTUS41 KPBZ 051304 CCA
TAFHLG
TAF COR
KHLG 051304Z 0513/0612 24003KT 4SM -SHRA OVC070
      TEMPO 0513/0514 1SM -SHRA BR
     FM051500 24004KT P6SM BKN080=

USA.gov is the U.S. government's official web portal to all federal, state and local government web resources and services.